Time;durP1;ratioP1;P1;durP2;ratioP2;P2;SDS_P1;SDS_P2;PMS_P1;PMS_P2;Temp;Humidity;BMP_temperature;BMP_pressure;BME280_temperature;BME280_humidity;BME280_pressure;Samples;Min_cycle;Max_cycle;Signal;HPM_P1;HPM_P2
2022/07/23 00:00:57;;;;;;;12.70;7.65;;;16.10;99.90;;;-144.05;84.77;125687.94;6098869;23;20033;-86
2022/07/23 00:03:23;;;;;;;13.43;7.50;;;16.10;99.90;;;-144.05;84.98;125687.94;6122949;23;20011;-87
2022/07/23 00:05:49;;;;;;;14.38;7.47;;;16.10;99.90;;;-144.05;85.37;125687.94;6122153;23;20014;-87
2022/07/23 00:08:15;;;;;;;17.02;9.52;;;16.00;99.90;;;-144.05;86.14;125687.94;6097598;23;20341;-87
2022/07/23 00:10:41;;;;;;;14.38;7.72;;;16.00;99.90;;;-144.05;85.91;125687.94;6099201;23;20011;-88
2022/07/23 00:13:08;;;;;;;12.02;7.78;;;15.90;99.90;;;-144.05;86.30;125687.94;6097663;23;20030;-89
2022/07/23 00:15:35;;;;;;;9.75;7.50;;;15.90;99.90;;;-144.05;86.27;125687.94;6098636;23;20017;-86
2022/07/23 00:18:01;;;;;;;14.63;8.57;;;15.90;99.90;;;-144.05;86.67;125687.94;6108392;23;20010;-88
2022/07/23 00:20:27;;;;;;;13.07;7.90;;;15.90;99.90;;;-144.05;87.29;125687.94;6097937;23;20392;-85
2022/07/23 00:22:55;;;;;;;11.73;8.05;;;16.00;99.90;;;-144.05;87.29;125687.94;6097463;23;20065;-84
2022/07/23 00:25:23;;;;;;;13.25;8.45;;;16.00;99.90;;;-144.05;87.53;125687.94;6099323;23;20089;-86
2022/07/23 00:27:49;;;;;;;14.50;8.60;;;16.00;99.90;;;-144.05;87.74;125687.94;6097325;23;20018;-85
2022/07/23 00:30:15;;;;;;;13.65;9.50;;;16.00;99.90;;;-144.05;88.08;125687.94;6096590;23;20010;-85
2022/07/23 00:32:57;;;;;;;14.68;9.68;;;15.90;99.90;;;-144.05;88.06;125687.94;6096780;23;20358;-87
2022/07/23 00:35:29;;;;;;;15.50;9.27;;;15.90;99.90;;;-144.05;88.28;125687.94;6097079;23;20097;-86
2022/07/23 00:37:56;;;;;;;15.50;9.95;;;15.90;99.90;;;-144.05;88.61;125687.94;6062069;23;20054;-84
2022/07/23 00:40:23;;;;;;;16.30;10.00;;;15.90;99.90;;;-144.05;88.92;125687.94;6097346;23;20466;-88
2022/07/23 00:42:49;;;;;;;18.00;12.02;;;15.90;99.90;;;-144.05;89.28;125687.94;6097382;23;20014;-84
2022/07/23 00:45:16;;;;;;;21.95;12.30;;;15.90;99.90;;;-144.05;89.73;125687.94;6097334;23;20025;-88
2022/07/23 00:47:42;;;;;;;17.85;11.20;;;15.80;99.90;;;-144.05;89.80;125687.94;6098415;23;20017;-86
2022/07/23 00:50:10;;;;;;;18.45;11.32;;;15.80;99.90;;;-144.05;89.92;125687.94;6123115;23;20433;-87
2022/07/23 00:52:39;;;;;;;14.45;10.95;;;15.80;99.90;;;-144.05;89.93;125687.94;6097851;23;20041;-85
2022/07/23 00:55:08;;;;;;;15.07;9.23;;;15.80;99.90;;;-144.05;89.87;125687.94;6098201;23;20019;-87
2022/07/23 00:57:35;;;;;;;14.35;10.77;;;15.80;99.90;;;-144.05;90.05;125687.94;6099304;23;20013;-87
2022/07/23 01:00:06;;;;;;;17.92;10.88;;;15.80;99.90;;;-144.05;89.99;125687.94;6097816;23;20097;-88
2022/07/23 01:02:33;;;;;;;20.98;14.65;;;15.80;99.90;;;-144.05;90.20;125687.94;6100207;23;20425;-86
2022/07/23 01:04:59;;;;;;;22.00;13.50;;;15.80;99.90;;;-144.05;90.19;125687.94;6099755;23;20093;-85
2022/07/23 01:07:25;;;;;;;24.70;15.60;;;15.70;99.90;;;-144.05;90.37;125687.94;6098102;23;20069;-86
2022/07/23 01:09:54;;;;;;;21.98;12.82;;;15.70;99.90;;;-144.05;90.45;125687.94;6122239;23;20016;-87
2022/07/23 01:12:20;;;;;;;23.83;15.15;;;15.70;99.90;;;-144.05;90.56;125687.94;6097599;23;20372;-85
2022/07/23 01:14:55;;;;;;;27.00;14.23;;;15.70;99.90;;;-144.05;90.46;125687.94;6098015;23;20489;-86
2022/07/23 01:17:22;;;;;;;24.58;14.82;;;15.70;99.90;;;-144.05;90.48;125687.94;6097878;23;20086;-86
2022/07/23 01:19:48;;;;;;;20.92;13.82;;;15.70;99.90;;;-144.05;90.47;125687.94;6097570;23;20018;-83
2022/07/23 01:22:18;;;;;;;21.30;13.43;;;15.70;99.90;;;-144.05;90.32;125687.94;6122582;23;19998;-86
2022/07/23 01:24:44;;;;;;;26.02;17.38;;;15.70;99.90;;;-144.05;90.39;125687.94;6097553;23;20397;-86
2022/07/23 01:27:10;;;;;;;23.02;14.93;;;15.70;99.90;;;-144.05;90.35;125687.94;6099526;23;20060;-86
2022/07/23 01:29:36;;;;;;;22.33;13.80;;;15.70;99.90;;;-144.05;90.73;125687.94;6097934;23;20457;-87
2022/07/23 01:32:03;;;;;;;20.63;12.00;;;15.70;99.90;;;-144.05;90.72;125687.94;6097964;23;20014;-86
2022/07/23 01:34:29;;;;;;;23.73;15.57;;;15.70;99.90;;;-144.05;90.84;125687.94;6098077;23;20014;-86
2022/07/23 01:36:55;;;;;;;25.85;16.40;;;15.70;99.90;;;-144.05;90.90;125687.94;6098292;23;20034;-87
2022/07/23 01:39:22;;;;;;;25.00;15.85;;;15.70;99.90;;;-144.05;90.90;125687.94;6099150;23;20493;-85
2022/07/23 01:41:48;;;;;;;24.40;15.65;;;15.80;99.90;;;-144.05;90.74;125687.94;6099785;23;20025;-87
2022/07/23 01:44:14;;;;;;;29.60;17.20;;;15.70;99.90;;;-144.05;90.74;125687.94;6111961;23;20410;-87
2022/07/23 01:46:40;;;;;;;31.63;16.17;;;15.70;99.90;;;-144.05;90.72;125687.94;6122058;23;20015;-85
2022/07/23 01:49:05;;;;;;;21.80;13.45;;;15.70;99.90;;;-144.05;90.82;125687.94;6097442;23;20021;-85
2022/07/23 01:51:31;;;;;;;22.13;13.80;;;15.70;99.90;;;-144.05;90.88;125687.94;6097216;23;20504;-87
2022/07/23 01:53:57;;;;;;;21.38;12.77;;;15.70;99.90;;;-144.05;91.21;125687.94;6122073;23;20010;-86
2022/07/23 01:56:23;;;;;;;20.35;13.13;;;15.70;99.90;;;-144.05;91.43;125687.94;6097411;23;20038;-86
2022/07/23 01:58:49;;;;;;;20.67;13.05;;;15.70;99.90;;;-144.05;91.48;125687.94;6097708;23;20006;-88
2022/07/23 02:01:16;;;;;;;20.77;13.55;;;15.70;99.90;;;-144.05;91.43;125687.94;6122437;23;20483;-86
2022/07/23 02:03:42;;;;;;;24.63;15.15;;;15.70;99.90;;;-144.05;91.68;125687.94;6098150;23;20007;-88
2022/07/23 02:06:08;;;;;;;23.40;15.55;;;15.60;99.90;;;-144.05;92.03;125687.94;6122793;23;20010;-87
2022/07/23 02:08:34;;;;;;;21.10;13.13;;;15.60;99.90;;;-144.05;91.98;125687.94;6098326;23;20010;-87
2022/07/23 02:11:00;;;;;;;24.88;13.60;;;15.60;99.90;;;-144.05;91.96;125687.94;6074214;23;20105;-89
2022/07/23 02:13:26;;;;;;;26.05;15.68;;;15.50;99.90;;;-144.05;92.04;125687.94;6132334;23;20006;-88
2022/07/23 02:15:51;;;;;;;35.67;18.25;;;15.50;99.90;;;-144.05;92.24;125687.94;6112670;23;20045;-87
2022/07/23 02:18:18;;;;;;;26.55;16.45;;;15.50;99.90;;;-144.05;92.09;125687.94;6123470;23;20010;-89
2022/07/23 02:20:44;;;;;;;26.83;16.58;;;15.50;99.90;;;-144.05;92.06;125687.94;6124090;23;20010;-88
2022/07/23 02:23:10;;;;;;;27.95;16.75;;;15.40;99.90;;;-144.05;91.99;125687.94;6121962;23;20010;-86
2022/07/23 02:25:36;;;;;;;26.08;15.57;;;15.40;99.90;;;-144.05;91.98;125687.94;6096572;23;20032;-86
2022/07/23 02:28:02;;;;;;;20.45;14.65;;;15.40;99.90;;;-144.05;92.05;125687.94;6097465;23;20113;-85
2022/07/23 02:30:29;;;;;;;32.10;18.40;;;15.40;99.90;;;-144.05;91.98;125687.94;6121646;23;20345;-86
2022/07/23 02:32:55;;;;;;;28.48;17.15;;;15.40;99.90;;;-144.05;91.90;125687.94;6121704;23;20006;-87
2022/07/23 02:35:21;;;;;;;27.80;16.20;;;15.40;99.90;;;-144.05;91.99;125687.94;6097170;23;20392;-88
2022/07/23 02:37:47;;;;;;;28.23;16.90;;;15.40;99.90;;;-144.05;92.11;125687.94;6122183;23;20314;-85
2022/07/23 02:40:13;;;;;;;26.42;17.13;;;15.40;99.90;;;-144.05;92.13;125687.94;6097235;23;20017;-83
2022/07/23 02:42:39;;;;;;;21.85;14.68;;;15.40;99.90;;;-144.05;92.19;125687.94;6099838;23;20341;-84
2022/07/23 02:45:06;;;;;;;23.85;14.52;;;15.40;99.90;;;-144.05;92.39;125687.94;6098879;23;20010;-83
2022/07/23 02:47:33;;;;;;;21.17;12.38;;;15.50;99.90;;;-144.05;92.42;125687.94;6110183;23;20104;-83
2022/07/23 02:49:58;;;;;;;23.63;14.35;;;15.40;99.90;;;-144.05;92.38;125687.94;6145197;23;20018;-85
2022/07/23 02:52:24;;;;;;;25.38;15.98;;;15.40;99.90;;;-144.05;92.64;125687.94;6109215;23;20066;-85
2022/07/23 02:54:50;;;;;;;23.42;14.20;;;15.30;99.90;;;-144.05;92.67;125687.94;6097710;23;20010;-85
2022/07/23 02:57:16;;;;;;;23.50;13.85;;;15.30;99.90;;;-144.05;92.87;125687.94;6099261;23;20065;-86
2022/07/23 02:59:42;;;;;;;23.30;15.18;;;15.30;99.90;;;-144.05;92.88;125687.94;6097905;23;20441;-85
2022/07/23 03:02:08;;;;;;;25.80;15.63;;;15.20;99.90;;;-144.05;92.87;125687.94;6099775;23;20034;-87
2022/07/23 03:04:34;;;;;;;27.35;15.85;;;15.10;99.90;;;-144.05;93.23;125687.94;6122208;23;20017;-83
2022/07/23 03:07:00;;;;;;;22.77;14.88;;;15.10;99.90;;;-144.05;93.25;125687.94;6099316;23;20010;-86
2022/07/23 03:09:26;;;;;;;22.48;14.18;;;15.00;99.90;;;-144.05;93.53;125687.94;6096973;23;20015;-87
2022/07/23 03:11:53;;;;;;;21.73;14.95;;;15.00;99.90;;;-144.05;93.41;125687.94;6097848;23;20345;-85
2022/07/23 03:14:20;;;;;;;23.20;14.60;;;14.90;99.90;;;-144.05;93.55;125687.94;6097185;23;20007;-86
2022/07/23 03:16:46;;;;;;;21.88;14.38;;;14.90;99.90;;;-144.05;93.82;125687.94;6097799;23;20010;-86
2022/07/23 03:19:14;;;;;;;20.48;14.02;;;14.90;99.90;;;-144.05;93.76;125687.94;6097319;23;20013;-84
2022/07/23 03:21:40;;;;;;;28.75;16.38;;;14.80;99.90;;;-144.05;93.79;125687.94;6099502;23;20029;-87
2022/07/23 03:24:09;;;;;;;21.67;15.52;;;14.80;99.90;;;-144.05;94.09;125687.94;6099305;23;20034;-86
2022/07/23 03:26:35;;;;;;;26.65;16.63;;;14.70;99.90;;;-144.05;94.06;125687.94;6122444;23;20018;-86
2022/07/23 03:29:03;;;;;;;26.98;16.02;;;14.70;99.90;;;-144.05;94.00;125687.94;6099926;23;20283;-86
2022/07/23 03:31:31;;;;;;;25.20;17.55;;;14.70;99.90;;;-144.05;94.60;125687.94;6097349;23;20010;-85
2022/07/23 03:33:58;;;;;;;19.20;13.73;;;14.70;99.90;;;-144.05;94.18;125687.94;6097298;23;20010;-85
2022/07/23 03:36:25;;;;;;;23.95;15.40;;;14.70;99.90;;;-144.05;94.40;125687.94;6097929;23;20018;-85
2022/07/23 03:38:51;;;;;;;26.35;15.45;;;14.60;99.90;;;-144.05;94.54;125687.94;6098096;23;20013;-84
2022/07/23 03:41:18;;;;;;;23.02;14.73;;;14.60;99.90;;;-144.05;94.45;125687.94;6122307;23;20441;-86
2022/07/23 03:43:45;;;;;;;21.65;13.43;;;14.60;99.90;;;-144.05;94.47;125687.94;6122106;23;20007;-86
2022/07/23 03:46:11;;;;;;;20.92;13.48;;;14.60;99.90;;;-144.05;94.61;125687.94;6122466;23;20010;-87
2022/07/23 03:48:37;;;;;;;26.40;14.60;;;14.50;99.90;;;-144.05;94.59;125687.94;6097818;23;20007;-87
2022/07/23 03:51:03;;;;;;;25.50;14.65;;;14.50;99.90;;;-144.05;94.64;125687.94;6121960;23;20011;-86
2022/07/23 03:53:29;;;;;;;21.15;13.48;;;14.40;99.90;;;-144.05;94.62;125687.94;6099837;23;20010;-87
2022/07/23 03:55:55;;;;;;;21.58;13.27;;;14.40;99.90;;;-144.05;94.82;125687.94;6098175;23;20059;-87
2022/07/23 03:58:21;;;;;;;23.70;14.65;;;14.40;99.90;;;-144.05;94.87;125687.94;6122662;23;20018;-88
2022/07/23 04:00:47;;;;;;;23.02;14.40;;;14.30;99.90;;;-144.05;94.97;125687.94;6099893;23;20328;-88
2022/07/23 04:03:13;;;;;;;21.55;12.70;;;14.30;99.90;;;-144.05;95.04;125687.94;6099997;23;20006;-88
2022/07/23 04:05:39;;;;;;;19.60;14.20;;;14.40;99.90;;;-144.05;95.00;125687.94;6097728;23;20021;-88
2022/07/23 04:08:05;;;;;;;18.42;13.07;;;14.40;99.90;;;-144.05;95.13;125687.94;6097743;23;20010;-86
2022/07/23 04:10:31;;;;;;;20.98;13.40;;;14.40;99.90;;;-144.05;95.28;125687.94;6104551;23;20092;-84
2022/07/23 04:12:57;;;;;;;23.02;14.90;;;14.40;99.90;;;-144.05;95.32;125687.94;6098262;23;20017;-87
2022/07/23 04:15:23;;;;;;;21.10;14.77;;;14.50;99.90;;;-144.05;95.13;125687.94;6099244;23;20014;-86
2022/07/23 04:17:49;;;;;;;28.35;17.08;;;14.50;99.90;;;-144.05;95.17;125687.94;6097585;23;20011;-86
2022/07/23 04:20:14;;;;;;;22.95;14.43;;;14.60;99.90;;;-144.05;95.33;125687.94;6121133;23;20017;-85
2022/07/23 04:22:40;;;;;;;21.55;15.35;;;14.60;99.90;;;-144.05;95.30;125687.94;6099099;23;20004;-88
2022/07/23 04:25:07;;;;;;;24.40;14.73;;;14.60;99.90;;;-144.05;95.22;125687.94;6121982;23;20074;-87
2022/07/23 04:27:33;;;;;;;18.92;12.73;;;14.60;99.90;;;-144.05;95.47;125687.94;6099367;23;20037;-86
2022/07/23 04:29:59;;;;;;;24.48;15.18;;;14.60;99.90;;;-144.05;95.28;125687.94;6099609;23;20007;-86
2022/07/23 04:32:25;;;;;;;22.08;16.83;;;14.70;99.90;;;-144.05;95.53;125687.94;6097126;23;20007;-88
2022/07/23 04:34:51;;;;;;;20.17;14.63;;;14.70;99.90;;;-144.05;95.56;125687.94;6122255;23;20065;-87
2022/07/23 04:37:16;;;;;;;22.40;13.35;;;14.70;99.90;;;-144.05;95.50;125687.94;6097842;23;20006;-87
2022/07/23 04:39:42;;;;;;;25.42;14.70;;;14.80;99.90;;;-144.05;95.51;125687.94;6097778;23;20097;-88
2022/07/23 04:42:08;;;;;;;31.00;16.67;;;14.80;99.90;;;-144.05;95.50;125687.94;6098459;23;20062;-88
2022/07/23 04:44:34;;;;;;;26.40;15.32;;;14.90;99.90;;;-144.05;95.20;125687.94;6098680;23;20038;-89
2022/07/23 04:47:00;;;;;;;24.10;15.52;;;14.80;99.90;;;-144.05;95.08;125687.94;6099296;23;20069;-86
2022/07/23 04:49:26;;;;;;;24.33;15.25;;;14.90;99.90;;;-144.05;94.94;125687.94;6098457;23;20017;-88
2022/07/23 04:51:52;;;;;;;26.67;17.23;;;15.00;99.90;;;-144.05;94.65;125687.94;6123238;23;20024;-90
2022/07/23 04:54:17;;;;;;;20.92;15.18;;;15.00;99.90;;;-144.05;94.77;125687.94;6099600;23;20011;-88
2022/07/23 04:56:43;;;;;;;22.65;15.52;;;15.00;99.90;;;-144.05;94.58;125687.94;6099647;23;20062;-90
2022/07/23 04:59:09;;;;;;;21.08;16.15;;;15.00;99.90;;;-144.05;94.38;125687.94;6100995;23;20002;-88
2022/07/23 05:01:35;;;;;;;20.15;14.70;;;15.10;99.90;;;-144.05;94.36;125687.94;6098684;23;20020;-87
2022/07/23 05:04:02;;;;;;;20.85;14.68;;;15.10;99.90;;;-144.05;94.29;125687.94;6098197;23;20006;-87
2022/07/23 05:06:28;;;;;;;24.02;14.77;;;15.10;99.90;;;-144.05;94.18;125687.94;6098096;23;20126;-88
2022/07/23 05:08:55;;;;;;;23.98;14.82;;;15.10;99.90;;;-144.05;94.19;125687.94;6097631;23;20321;-88
2022/07/23 05:11:21;;;;;;;23.83;14.40;;;15.20;99.90;;;-144.05;94.04;125687.94;6073548;23;20089;-87
2022/07/23 05:13:46;;;;;;;29.38;16.90;;;15.20;99.90;;;-144.05;93.82;125687.94;6100076;23;20034;-85
2022/07/23 05:16:12;;;;;;;24.67;17.52;;;15.20;99.90;;;-144.05;93.95;125687.94;6134414;23;20070;-86
2022/07/23 05:18:38;;;;;;;21.70;17.25;;;15.30;99.90;;;-144.05;93.60;125687.94;6112077;23;20010;-86
2022/07/23 05:21:04;;;;;;;22.23;15.50;;;15.30;99.90;;;-144.05;93.48;125687.94;6111357;23;20014;-87
2022/07/23 05:23:30;;;;;;;24.35;16.45;;;15.30;99.90;;;-144.05;93.47;125687.94;6113554;23;20017;-87
2022/07/23 05:25:56;;;;;;;18.90;14.30;;;15.30;99.90;;;-144.05;93.60;125687.94;6111573;23;20007;-86
2022/07/23 05:28:22;;;;;;;22.08;16.00;;;15.40;99.90;;;-144.05;93.33;125687.94;6110948;23;20053;-88
2022/07/23 05:30:48;;;;;;;24.90;16.08;;;15.50;99.90;;;-144.05;92.89;125687.94;6098312;23;20330;-88
2022/07/23 05:33:14;;;;;;;35.58;25.05;;;15.60;99.90;;;-144.05;91.97;125687.94;6098929;23;20011;-86
2022/07/23 05:35:40;;;;;;;31.67;20.77;;;15.60;99.90;;;-144.05;92.14;125687.94;6100550;23;20036;-87
2022/07/23 05:38:06;;;;;;;40.10;26.15;;;15.60;99.90;;;-144.05;91.79;125687.94;6099599;23;20006;-87
2022/07/23 05:40:32;;;;;;;33.25;23.75;;;15.60;99.90;;;-144.05;91.60;125687.94;6098899;23;20058;-87
2022/07/23 05:42:58;;;;;;;28.13;21.02;;;15.70;99.90;;;-144.05;91.51;125687.94;6123995;23;20010;-88
2022/07/23 05:45:24;;;;;;;31.13;20.67;;;15.80;99.90;;;-144.05;91.07;125687.94;6122855;23;20010;-86
2022/07/23 05:47:50;;;;;;;26.90;19.60;;;15.90;99.90;;;-144.05;90.88;125687.94;6099434;23;20059;-87
2022/07/23 05:50:17;;;;;;;24.75;17.83;;;15.90;99.90;;;-144.05;90.87;125687.94;6099092;23;20018;-86
2022/07/23 05:52:43;;;;;;;27.00;19.67;;;16.00;99.90;;;-144.05;90.61;125687.94;6098754;23;20337;-89
2022/07/23 05:55:12;;;;;;;26.70;19.13;;;16.00;99.90;;;-144.05;90.38;125687.94;6099645;23;20038;-88
2022/07/23 05:57:39;;;;;;;27.55;20.13;;;16.10;99.90;;;-144.05;89.74;125687.94;6099184;23;20039;-87
2022/07/23 06:00:08;;;;;;;31.80;21.20;;;16.10;99.90;;;-144.05;89.54;125687.94;6100639;23;20006;-89
2022/07/23 06:02:34;;;;;;;34.65;24.67;;;16.20;99.90;;;-144.05;88.61;125687.94;6099978;23;20037;-89
2022/07/23 06:05:00;;;;;;;34.92;25.23;;;16.20;99.90;;;-144.05;88.19;125687.94;6106106;23;20010;-89
2022/07/23 06:07:26;;;;;;;34.72;25.23;;;16.20;99.90;;;-144.05;88.17;125687.94;6100789;23;20010;-89
2022/07/23 06:09:52;;;;;;;48.08;30.92;;;16.20;99.90;;;-144.05;88.00;125687.94;6100212;23;20037;-88
2022/07/23 06:12:18;;;;;;;48.08;33.22;;;16.10;99.90;;;-144.05;88.43;125687.94;6099648;23;20014;-87
2022/07/23 06:14:44;;;;;;;47.03;32.10;;;16.10;99.90;;;-144.05;88.13;125687.94;6098953;23;20037;-85
2022/07/23 06:17:10;;;;;;;50.80;33.30;;;16.00;99.90;;;-144.05;87.75;125687.94;6097974;23;20433;-86
2022/07/23 06:19:37;;;;;;;55.47;36.67;;;16.00;99.90;;;-144.05;88.19;125687.94;6122653;23;20007;-88
2022/07/23 06:22:02;;;;;;;58.00;35.50;;;16.00;99.90;;;-144.05;88.11;125687.94;6100481;23;20424;-86
2022/07/23 06:24:28;;;;;;;53.03;36.20;;;16.10;99.90;;;-144.05;88.00;125687.94;6099158;23;20049;-89
2022/07/23 06:26:54;;;;;;;56.65;37.42;;;16.30;99.90;;;-144.05;87.48;125687.94;6099362;23;20014;-86
2022/07/23 06:29:20;;;;;;;55.35;37.45;;;16.40;99.90;;;-144.05;86.94;125687.94;6123963;23;20121;-88
2022/07/23 06:31:46;;;;;;;56.70;37.50;;;16.70;99.90;;;-144.05;86.48;125687.94;6099766;23;20021;-86
2022/07/23 06:34:12;;;;;;;56.20;36.35;;;16.90;99.90;;;-144.05;85.41;125687.94;6076501;23;20089;-88
2022/07/23 06:36:37;;;;;;;46.05;31.88;;;17.20;99.90;;;-144.05;84.26;125687.94;6124942;23;20011;-86
2022/07/23 06:39:03;;;;;;;52.67;34.72;;;17.40;99.90;;;-144.05;82.63;125687.94;6101816;23;20029;-87
2022/07/23 06:41:30;;;;;;;55.58;38.60;;;17.70;99.90;;;-144.05;80.82;125687.94;6100442;23;20014;-87
2022/07/23 06:43:56;;;;;;;62.72;40.58;;;18.20;99.90;;;-144.05;77.97;125687.94;6101322;23;20002;-87
2022/07/23 06:46:22;;;;;;;59.17;39.63;;;18.60;99.90;;;-144.05;76.95;125687.94;6100414;23;20013;-85
2022/07/23 06:48:48;;;;;;;66.95;42.60;;;18.80;99.90;;;-144.05;76.94;125687.94;6124522;23;20038;-88
2022/07/23 06:51:14;;;;;;;58.05;39.50;;;18.80;99.90;;;-144.05;76.12;125687.94;6100545;23;20054;-85
2022/07/23 06:53:40;;;;;;;59.47;40.55;;;18.60;99.90;;;-144.05;77.78;125687.94;6101258;23;20419;-87
2022/07/23 06:56:06;;;;;;;62.75;42.22;;;18.40;99.90;;;-144.05;78.13;125687.94;6100128;23;20041;-85
2022/07/23 06:58:33;;;;;;;57.58;38.10;;;18.10;99.90;;;-144.05;79.33;125687.94;6137480;23;19994;-84
2022/07/23 07:00:59;;;;;;;53.80;37.05;;;17.90;99.90;;;-144.05;80.19;125687.94;6146920;23;20033;-84
2022/07/23 07:03:25;;;;;;;57.83;39.15;;;17.80;99.90;;;-144.05;80.74;125687.94;6105841;23;20034;-87
2022/07/23 07:05:51;;;;;;;59.03;38.55;;;17.80;99.90;;;-144.05;79.23;125687.94;6074651;23;20417;-87
2022/07/23 07:08:18;;;;;;;49.42;34.83;;;18.00;99.90;;;-144.05;78.44;125687.94;6098296;23;20031;-87
2022/07/23 07:10:44;;;;;;;50.50;36.60;;;18.20;99.90;;;-144.05;76.91;125687.94;6098417;23;20006;-89
2022/07/23 07:13:10;;;;;;;51.40;36.88;;;18.20;99.90;;;-144.05;76.74;125687.94;6123030;23;20006;-90
2022/07/23 07:15:36;;;;;;;55.55;37.78;;;18.10;99.90;;;-144.05;77.26;125687.94;6100435;23;20089;-87
2022/07/23 07:18:02;;;;;;;52.45;38.85;;;18.20;99.90;;;-144.05;75.25;125687.94;6123109;23;20006;-88
2022/07/23 07:20:28;;;;;;;47.75;35.92;;;18.60;99.90;;;-144.05;71.74;125687.94;6097979;23;20011;-89
2022/07/23 07:22:54;;;;;;;46.47;34.85;;;19.10;99.90;;;-144.05;68.90;125687.94;6097704;23;20049;-89
2022/07/23 07:25:20;;;;;;;38.08;29.13;;;19.40;99.90;;;-144.05;68.30;125687.94;6098654;23;20010;-87
2022/07/23 07:27:46;;;;;;;45.17;33.70;;;19.70;99.90;;;-144.05;67.66;125687.94;6123006;23;20025;-90
2022/07/23 07:30:12;;;;;;;45.28;35.50;;;19.90;99.90;;;-144.05;68.42;125687.94;6123820;23;20010;-90
2022/07/23 07:32:40;;;;;;;36.30;29.85;;;20.10;99.90;;;-144.05;65.60;125687.94;6123795;23;20069;-86
2022/07/23 07:35:08;;;;;;;43.95;33.95;;;20.70;99.90;;;-144.05;62.47;125687.94;6100536;23;20010;-90
2022/07/23 07:37:34;;;;;;;37.35;30.35;;;21.50;99.90;;;-144.05;61.65;125687.94;6099623;23;20089;-89
2022/07/23 07:40:00;;;;;;;34.95;28.80;;;22.10;99.90;;;-144.05;59.36;125687.94;6122109;23;20002;-89
2022/07/23 07:42:26;;;;;;;38.63;32.78;;;22.50;99.90;;;-144.05;57.98;125687.94;6123028;23;20141;-89
2022/07/23 07:44:52;;;;;;;34.83;28.17;;;22.70;99.90;;;-144.05;55.65;125687.94;6099645;23;20013;-89
2022/07/23 07:47:18;;;;;;;33.10;28.58;;;22.50;99.90;;;-144.05;56.56;125687.94;6100799;23;20014;-90
2022/07/23 07:49:44;;;;;;;35.80;30.17;;;22.20;99.90;;;-144.05;58.31;125687.94;6101955;23;20010;-90
2022/07/23 07:52:11;;;;;;;35.38;30.42;;;21.90;99.90;;;-144.05;59.29;125687.94;6101944;23;20011;-90
2022/07/23 07:54:37;;;;;;;33.30;26.67;;;21.80;99.90;;;-144.05;55.42;125687.94;6099395;23;20037;-89
2022/07/23 07:57:03;;;;;;;29.33;22.75;;;22.00;99.90;;;-144.05;55.82;125687.94;6101457;23;20017;-90
2022/07/23 07:59:29;;;;;;;25.00;19.80;;;22.00;99.90;;;-144.05;56.67;125687.94;6137124;23;20014;-89
2022/07/23 08:01:55;;;;;;;28.13;20.48;;;21.70;99.90;;;-144.05;58.50;125687.94;6100914;23;20002;-91
2022/07/23 08:04:21;;;;;;;24.17;18.80;;;21.30;99.90;;;-144.05;59.86;125687.94;6123997;23;20083;-90
2022/07/23 08:06:47;;;;;;;18.60;16.52;;;20.90;99.90;;;-144.05;60.49;125687.94;6100103;23;20046;-89
2022/07/23 08:09:13;;;;;;;25.00;18.45;;;20.90;99.90;;;-144.05;58.36;125687.94;6099302;23;20010;-91
2022/07/23 08:11:39;;;;;;;21.67;18.55;;;21.50;99.90;;;-144.05;55.92;125687.94;6075840;23;20014;-91
2022/07/23 08:14:05;;;;;;;19.77;15.57;;;22.20;99.90;;;-144.05;52.33;125687.94;6100136;23;20445;-90
2022/07/23 08:16:31;;;;;;;15.00;12.52;;;22.90;99.90;;;-144.05;50.75;125687.94;6076312;23;20318;-91
2022/07/23 08:18:57;;;;;;;16.95;13.15;;;23.10;99.90;;;-144.05;49.13;125687.94;6101443;23;20345;-90
2022/07/23 08:21:23;;;;;;;15.75;11.63;;;23.40;99.90;;;-144.05;47.89;125687.94;6101586;23;20006;-88
2022/07/23 08:23:48;;;;;;;14.85;11.15;;;23.70;99.90;;;-144.05;47.54;125687.94;6101658;23;20010;-91
2022/07/23 08:26:14;;;;;;;11.82;10.32;;;23.80;99.90;;;-144.05;47.33;125687.94;6099324;23;20033;-89
2022/07/23 08:28:42;;;;;;;11.27;10.07;;;23.90;99.90;;;-144.05;47.65;125687.94;6123480;23;20322;-88
2022/07/23 08:31:10;;;;;;;13.07;10.57;;;24.00;99.90;;;-144.05;46.69;125687.94;6097925;23;20014;-91
2022/07/23 08:33:36;;;;;;;11.88;8.27;;;24.30;99.90;;;-144.05;47.37;125687.94;6097907;23;20038;-87
2022/07/23 08:36:04;;;;;;;12.25;9.00;;;23.80;99.90;;;-144.05;48.44;125687.94;6098115;23;20014;-90
2022/07/23 08:38:31;;;;;;;11.95;7.45;;;23.20;99.90;;;-144.05;48.78;125687.94;6097903;23;20006;-92
2022/07/23 08:40:58;;;;;;;9.27;6.78;;;23.60;99.90;;;-144.05;47.14;125687.94;6122318;23;20034;-93
2022/07/23 08:43:28;;;;;;;8.02;6.15;;;23.90;99.90;;;-144.05;46.61;125687.94;6098468;23;20006;-91
2022/07/23 08:45:58;;;;;;;8.65;6.28;;;24.00;99.90;;;-144.05;47.89;125687.94;6123369;23;20011;-91
2022/07/23 08:48:28;;;;;;;6.15;5.43;;;23.70;99.90;;;-144.05;47.69;125687.94;6099834;23;20007;-92
2022/07/23 08:50:58;;;;;;;9.25;5.18;;;23.70;99.90;;;-144.05;46.53;125687.94;6097461;23;20032;-91
2022/07/23 08:53:27;;;;;;;7.15;5.22;;;23.60;99.90;;;-144.05;46.47;125687.94;6100527;23;20438;-93
2022/07/23 08:55:59;;;;;;;8.05;4.65;;;23.20;99.90;;;-144.05;47.63;125687.94;6100108;23;20054;-89
2022/07/23 08:58:26;;;;;;;7.97;5.55;;;23.00;99.90;;;-144.05;48.59;125687.94;6098303;23;20010;-87
2022/07/23 09:00:51;;;;;;;8.35;4.78;;;23.20;99.90;;;-144.05;47.68;125687.94;6098705;23;20007;-88
2022/07/23 09:03:27;;;;;;;7.13;3.90;;;23.60;99.90;;;-144.05;46.30;125687.94;6122022;23;20034;-90
2022/07/23 09:05:56;;;;;;;8.20;5.60;;;24.30;99.90;;;-144.05;43.04;125687.94;6122862;23;20061;-90
2022/07/23 09:08:26;;;;;;;8.82;5.20;;;24.60;99.90;;;-144.05;43.58;125687.94;6076766;23;20089;-89
2022/07/23 09:11:02;;;;;;;7.70;4.20;;;24.60;99.90;;;-144.05;44.16;125687.94;6125007;23;20006;-90
2022/07/23 09:13:39;;;;;;;10.20;5.93;;;24.90;99.90;;;-144.05;43.53;125687.94;6076292;23;20456;-86
2022/07/23 09:16:17;;;;;;;7.57;4.65;;;24.60;99.90;;;-144.05;44.23;125687.94;6099606;23;20476;-90
2022/07/23 09:18:58;;;;;;;7.72;4.30;;;24.00;99.90;;;-144.05;47.13;125687.94;6077181;23;20314;-91
2022/07/23 09:21:38;;;;;;;5.75;4.45;;;23.30;99.90;;;-144.05;47.28;125687.94;6076817;23;20018;-87
2022/07/23 09:24:11;;;;;;;6.20;4.72;;;22.90;99.90;;;-144.05;47.69;125687.94;6099609;23;20006;-92
2022/07/23 09:26:47;;;;;;;9.05;5.40;;;23.20;99.90;;;-144.05;45.33;125687.94;6098615;23;20411;-89
2022/07/23 09:29:26;;;;;;;8.82;3.92;;;23.80;99.90;;;-144.05;41.62;125687.94;6100936;23;20006;-88
2022/07/23 09:32:00;;;;;;;8.23;4.40;;;24.30;99.90;;;-144.05;40.57;125687.94;6100030;23;20006;-89
2022/07/23 09:34:38;;;;;;;5.18;3.60;;;25.00;99.90;;;-144.05;40.58;125687.94;6076704;23;20053;-89
2022/07/23 09:37:17;;;;;;;7.32;3.75;;;25.40;99.90;;;-144.05;40.05;125687.94;6076445;23;20433;-88
2022/07/23 09:39:48;;;;;;;4.30;2.92;;;25.80;99.90;;;-144.05;39.24;125687.94;6102315;23;20006;-89
2022/07/23 09:42:25;;;;;;;4.80;3.65;;;26.00;99.90;;;-144.05;38.64;125687.94;6100834;23;20010;-91
2022/07/23 09:44:56;;;;;;;9.75;4.50;;;26.00;99.90;;;-144.05;37.82;125687.94;6076607;23;20015;-90
2022/07/23 09:47:27;;;;;;;3.78;2.95;;;26.00;99.90;;;-144.05;38.42;125687.94;6124856;23;20021;-90
2022/07/23 09:50:11;;;;;;;6.90;3.25;;;26.00;99.90;;;-144.05;38.74;125687.94;6103439;23;20014;-90